sensor_id;sensor_type;location;lat;lon;timestamp;temperature;humidity
52127;DHT22;38120;53.176;6.614;2023-09-19T00:01:15;14.60;99.90
52127;DHT22;38120;53.176;6.614;2023-09-19T00:03:41;14.60;99.90
52127;DHT22;38120;53.176;6.614;2023-09-19T00:06:07;14.50;99.90
52127;DHT22;38120;53.176;6.614;2023-09-19T00:08:36;14.60;99.90
52127;DHT22;38120;53.176;6.614;2023-09-19T00:11:02;14.50;99.90
52127;DHT22;38120;53.176;6.614;2023-09-19T00:13:34;14.50;99.90
52127;DHT22;38120;53.176;6.614;2023-09-19T00:16:01;14.40;99.90
52127;DHT22;38120;53.176;6.614;2023-09-19T00:18:33;14.40;99.90
52127;DHT22;38120;53.176;6.614;2023-09-19T00:21:00;14.40;99.90
52127;DHT22;38120;53.176;6.614;2023-09-19T00:23:27;14.30;99.90
52127;DHT22;38120;53.176;6.614;2023-09-19T00:25:53;14.30;99.90
52127;DHT22;38120;53.176;6.614;2023-09-19T00:28:22;14.30;99.90
52127;DHT22;38120;53.176;6.614;2023-09-19T00:30:48;14.20;99.90
52127;DHT22;38120;53.176;6.614;2023-09-19T00:33:18;14.20;99.90
52127;DHT22;38120;53.176;6.614;2023-09-19T00:35:52;14.20;99.90
52127;DHT22;38120;53.176;6.614;2023-09-19T00:38:19;14.10;99.90
52127;DHT22;38120;53.176;6.614;2023-09-19T00:40:47;14.10;99.90
52127;DHT22;38120;53.176;6.614;2023-09-19T00:43:13;14.00;99.90
52127;DHT22;38120;53.176;6.614;2023-09-19T00:45:43;14.00;99.90
52127;DHT22;38120;53.176;6.614;2023-09-19T00:48:09;14.00;99.90
52127;DHT22;38120;53.176;6.614;2023-09-19T00:50:35;13.90;99.90
52127;DHT22;38120;53.176;6.614;2023-09-19T00:53:02;13.90;99.90
52127;DHT22;38120;53.176;6.614;2023-09-19T00:55:34;13.90;99.90
52127;DHT22;38120;53.176;6.614;2023-09-19T00:58:00;13.90;99.90
52127;DHT22;38120;53.176;6.614;2023-09-19T01:00:26;13.80;99.90
52127;DHT22;38120;53.176;6.614;2023-09-19T01:02:53;13.80;99.90
52127;DHT22;38120;53.176;6.614;2023-09-19T01:05:19;13.80;99.90
52127;DHT22;38120;53.176;6.614;2023-09-19T01:07:45;13.80;99.90
52127;DHT22;38120;53.176;6.614;2023-09-19T01:10:15;13.80;99.90
52127;DHT22;38120;53.176;6.614;2023-09-19T01:15:38;13.80;99.90
52127;DHT22;38120;53.176;6.614;2023-09-19T01:21:15;13.70;99.90
52127;DHT22;38120;53.176;6.614;2023-09-19T01:29:39;13.70;99.90
52127;DHT22;38120;53.176;6.614;2023-09-19T01:32:06;13.60;99.90
52127;DHT22;38120;53.176;6.614;2023-09-19T01:34:55;13.60;99.90
52127;DHT22;38120;53.176;6.614;2023-09-19T01:37:23;13.60;99.90
52127;DHT22;38120;53.176;6.614;2023-09-19T01:40:01;13.60;99.90
52127;DHT22;38120;53.176;6.614;2023-09-19T01:45:31;13.50;99.90
52127;DHT22;38120;53.176;6.614;2023-09-19T01:50:59;13.50;99.90
52127;DHT22;38120;53.176;6.614;2023-09-19T01:53:34;13.40;99.90
52127;DHT22;38120;53.176;6.614;2023-09-19T01:56:01;13.40;99.90
52127;DHT22;38120;53.176;6.614;2023-09-19T01:58:34;13.40;99.90
52127;DHT22;38120;53.176;6.614;2023-09-19T02:01:01;13.40;99.90
52127;DHT22;38120;53.176;6.614;2023-09-19T02:03:29;13.40;99.90
52127;DHT22;38120;53.176;6.614;2023-09-19T02:05:56;13.30;99.90
52127;DHT22;38120;53.176;6.614;2023-09-19T02:08:22;13.30;99.90
52127;DHT22;38120;53.176;6.614;2023-09-19T02:10:49;13.30;99.90
52127;DHT22;38120;53.176;6.614;2023-09-19T02:13:19;13.20;99.90
52127;DHT22;38120;53.176;6.614;2023-09-19T02:15:45;13.30;99.90
52127;DHT22;38120;53.176;6.614;2023-09-19T02:18:14;13.20;99.90
52127;DHT22;38120;53.176;6.614;2023-09-19T02:20:40;13.20;99.90
52127;DHT22;38120;53.176;6.614;2023-09-19T02:23:07;13.10;99.90
52127;DHT22;38120;53.176;6.614;2023-09-19T02:25:33;13.10;99.90
52127;DHT22;38120;53.176;6.614;2023-09-19T02:28:00;13.10;99.90
52127;DHT22;38120;53.176;6.614;2023-09-19T02:30:29;13.10;99.90
52127;DHT22;38120;53.176;6.614;2023-09-19T02:32:55;13.10;99.90
52127;DHT22;38120;53.176;6.614;2023-09-19T02:35:21;13.00;99.90
52127;DHT22;38120;53.176;6.614;2023-09-19T02:37:47;13.00;99.90
52127;DHT22;38120;53.176;6.614;2023-09-19T02:40:13;13.00;99.90
52127;DHT22;38120;53.176;6.614;2023-09-19T02:42:48;13.00;99.90
52127;DHT22;38120;53.176;6.614;2023-09-19T02:45:18;12.90;99.90
52127;DHT22;38120;53.176;6.614;2023-09-19T02:47:45;13.00;99.90
52127;DHT22;38120;53.176;6.614;2023-09-19T02:50:11;12.90;99.90
52127;DHT22;38120;53.176;6.614;2023-09-19T02:52:38;12.90;99.90
52127;DHT22;38120;53.176;6.614;2023-09-19T02:55:04;12.90;99.90
52127;DHT22;38120;53.176;6.614;2023-09-19T02:57:31;12.90;99.90
52127;DHT22;38120;53.176;6.614;2023-09-19T02:59:58;12.90;99.90
52127;DHT22;38120;53.176;6.614;2023-09-19T03:02:26;12.90;99.90
52127;DHT22;38120;53.176;6.614;2023-09-19T03:04:53;12.80;99.90
52127;DHT22;38120;53.176;6.614;2023-09-19T03:07:19;12.80;99.90
52127;DHT22;38120;53.176;6.614;2023-09-19T03:09:45;12.80;99.90
52127;DHT22;38120;53.176;6.614;2023-09-19T03:12:11;12.80;99.90
52127;DHT22;38120;53.176;6.614;2023-09-19T03:14:37;12.80;99.90
52127;DHT22;38120;53.176;6.614;2023-09-19T03:17:02;12.80;99.90
52127;DHT22;38120;53.176;6.614;2023-09-19T03:19:31;12.80;99.90
52127;DHT22;38120;53.176;6.614;2023-09-19T03:22:00;12.20;99.90
52127;DHT22;38120;53.176;6.614;2023-09-19T03:24:26;12.80;99.90
52127;DHT22;38120;53.176;6.614;2023-09-19T03:26:52;12.80;99.90
52127;DHT22;38120;53.176;6.614;2023-09-19T03:29:18;12.80;99.90
52127;DHT22;38120;53.176;6.614;2023-09-19T03:31:44;12.80;99.90
52127;DHT22;38120;53.176;6.614;2023-09-19T03:34:11;12.80;99.90
52127;DHT22;38120;53.176;6.614;2023-09-19T03:36:36;12.80;99.90
52127;DHT22;38120;53.176;6.614;2023-09-19T03:39:02;12.80;99.90
52127;DHT22;38120;53.176;6.614;2023-09-19T03:41:31;12.90;99.90
52127;DHT22;38120;53.176;6.614;2023-09-19T03:43:57;12.80;99.90
52127;DHT22;38120;53.176;6.614;2023-09-19T03:46:23;12.80;99.90
52127;DHT22;38120;53.176;6.614;2023-09-19T03:48:50;12.80;99.90
52127;DHT22;38120;53.176;6.614;2023-09-19T03:51:16;12.80;99.90
52127;DHT22;38120;53.176;6.614;2023-09-19T03:53:41;12.80;99.90
52127;DHT22;38120;53.176;6.614;2023-09-19T03:56:07;12.80;99.90
52127;DHT22;38120;53.176;6.614;2023-09-19T03:58:34;12.80;99.90
52127;DHT22;38120;53.176;6.614;2023-09-19T04:01:04;12.80;99.90
52127;DHT22;38120;53.176;6.614;2023-09-19T04:03:32;12.80;99.90
52127;DHT22;38120;53.176;6.614;2023-09-19T04:06:15;12.90;99.90
52127;DHT22;38120;53.176;6.614;2023-09-19T04:08:41;12.90;99.90
52127;DHT22;38120;53.176;6.614;2023-09-19T04:11:07;12.90;99.90
52127;DHT22;38120;53.176;6.614;2023-09-19T04:13:33;13.00;99.90
52127;DHT22;38120;53.176;6.614;2023-09-19T04:15:59;13.00;99.90
52127;DHT22;38120;53.176;6.614;2023-09-19T04:18:25;13.10;99.90
52127;DHT22;38120;53.176;6.614;2023-09-19T04:20:52;13.10;99.90
52127;DHT22;38120;53.176;6.614;2023-09-19T04:23:17;13.10;99.90
52127;DHT22;38120;53.176;6.614;2023-09-19T04:25:46;13.10;99.90
52127;DHT22;38120;53.176;6.614;2023-09-19T04:28:13;13.00;99.90
52127;DHT22;38120;53.176;6.614;2023-09-19T04:30:39;13.10;99.90
52127;DHT22;38120;53.176;6.614;2023-09-19T04:33:08;13.10;99.90
52127;DHT22;38120;53.176;6.614;2023-09-19T04:35:34;13.10;99.90
52127;DHT22;38120;53.176;6.614;2023-09-19T04:38:00;13.10;99.90
52127;DHT22;38120;53.176;6.614;2023-09-19T04:40:26;13.20;99.90
52127;DHT22;38120;53.176;6.614;2023-09-19T04:42:58;13.10;99.90
52127;DHT22;38120;53.176;6.614;2023-09-19T04:45:24;13.10;99.90
52127;DHT22;38120;53.176;6.614;2023-09-19T04:47:50;13.10;99.90
52127;DHT22;38120;53.176;6.614;2023-09-19T04:50:16;13.20;99.90
52127;DHT22;38120;53.176;6.614;2023-09-19T04:52:43;13.10;99.90
52127;DHT22;38120;53.176;6.614;2023-09-19T04:55:14;13.10;99.90
52127;DHT22;38120;53.176;6.614;2023-09-19T04:57:49;13.10;99.90
52127;DHT22;38120;53.176;6.614;2023-09-19T05:00:17;13.10;99.90
52127;DHT22;38120;53.176;6.614;2023-09-19T05:02:45;13.10;99.90
52127;DHT22;38120;53.176;6.614;2023-09-19T05:05:11;13.20;99.90
52127;DHT22;38120;53.176;6.614;2023-09-19T05:07:42;13.20;99.90
52127;DHT22;38120;53.176;6.614;2023-09-19T05:10:09;13.20;99.90
52127;DHT22;38120;53.176;6.614;2023-09-19T05:12:35;13.20;99.90
52127;DHT22;38120;53.176;6.614;2023-09-19T05:15:05;13.20;99.90
52127;DHT22;38120;53.176;6.614;2023-09-19T05:17:35;13.20;99.90
52127;DHT22;38120;53.176;6.614;2023-09-19T05:20:04;13.20;99.90
52127;DHT22;38120;53.176;6.614;2023-09-19T05:22:39;13.20;99.90
52127;DHT22;38120;53.176;6.614;2023-09-19T05:25:06;13.20;99.90
52127;DHT22;38120;53.176;6.614;2023-09-19T05:27:32;13.30;99.90
52127;DHT22;38120;53.176;6.614;2023-09-19T05:29:59;13.20;99.90
52127;DHT22;38120;53.176;6.614;2023-09-19T05:32:25;13.30;99.90
52127;DHT22;38120;53.176;6.614;2023-09-19T05:34:52;13.30;99.90
52127;DHT22;38120;53.176;6.614;2023-09-19T05:37:19;13.30;99.90
52127;DHT22;38120;53.176;6.614;2023-09-19T05:39:45;13.30;99.90
52127;DHT22;38120;53.176;6.614;2023-09-19T05:42:11;13.30;99.90
52127;DHT22;38120;53.176;6.614;2023-09-19T05:44:37;13.30;99.90
52127;DHT22;38120;53.176;6.614;2023-09-19T05:47:03;13.30;99.90
52127;DHT22;38120;53.176;6.614;2023-09-19T05:49:29;13.30;99.90
52127;DHT22;38120;53.176;6.614;2023-09-19T05:51:55;13.30;99.90
52127;DHT22;38120;53.176;6.614;2023-09-19T05:54:24;13.30;99.90
52127;DHT22;38120;53.176;6.614;2023-09-19T05:56:50;13.40;99.90
52127;DHT22;38120;53.176;6.614;2023-09-19T05:59:19;13.40;99.90
52127;DHT22;38120;53.176;6.614;2023-09-19T06:01:44;13.30;99.90
52127;DHT22;38120;53.176;6.614;2023-09-19T06:04:11;13.40;99.90
52127;DHT22;38120;53.176;6.614;2023-09-19T06:06:37;13.40;99.90
52127;DHT22;38120;53.176;6.614;2023-09-19T06:09:06;13.40;99.90
52127;DHT22;38120;53.176;6.614;2023-09-19T06:11:34;13.40;99.90
52127;DHT22;38120;53.176;6.614;2023-09-19T06:14:01;13.50;99.90
52127;DHT22;38120;53.176;6.614;2023-09-19T06:16:28;13.50;99.90
52127;DHT22;38120;53.176;6.614;2023-09-19T06:18:55;13.60;99.90
52127;DHT22;38120;53.176;6.614;2023-09-19T06:21:24;13.60;99.90
52127;DHT22;38120;53.176;6.614;2023-09-19T06:23:50;13.60;99.90
52127;DHT22;38120;53.176;6.614;2023-09-19T06:26:16;13.60;99.90
52127;DHT22;38120;53.176;6.614;2023-09-19T06:28:43;13.70;99.90
52127;DHT22;38120;53.176;6.614;2023-09-19T06:31:09;13.70;99.90
52127;DHT22;38120;53.176;6.614;2023-09-19T06:33:38;13.70;99.90
52127;DHT22;38120;53.176;6.614;2023-09-19T06:36:05;13.70;99.90
52127;DHT22;38120;53.176;6.614;2023-09-19T06:38:31;13.80;99.90
52127;DHT22;38120;53.176;6.614;2023-09-19T06:40:59;13.80;99.90
52127;DHT22;38120;53.176;6.614;2023-09-19T06:43:27;13.80;99.90
52127;DHT22;38120;53.176;6.614;2023-09-19T06:45:54;13.80;99.90
52127;DHT22;38120;53.176;6.614;2023-09-19T06:48:20;13.80;99.90
52127;DHT22;38120;53.176;6.614;2023-09-19T06:50:47;13.90;99.90
52127;DHT22;38120;53.176;6.614;2023-09-19T06:53:16;13.90;99.90
52127;DHT22;38120;53.176;6.614;2023-09-19T06:55:43;13.90;99.90
52127;DHT22;38120;53.176;6.614;2023-09-19T06:58:09;14.00;99.90
52127;DHT22;38120;53.176;6.614;2023-09-19T07:00:36;14.10;99.90
52127;DHT22;38120;53.176;6.614;2023-09-19T07:03:07;14.20;99.90
52127;DHT22;38120;53.176;6.614;2023-09-19T07:05:40;14.20;99.90
52127;DHT22;38120;53.176;6.614;2023-09-19T07:08:06;14.30;99.90
52127;DHT22;38120;53.176;6.614;2023-09-19T07:10:33;14.30;99.90
52127;DHT22;38120;53.176;6.614;2023-09-19T07:13:02;14.30;99.90
52127;DHT22;38120;53.176;6.614;2023-09-19T07:15:29;14.40;99.90
52127;DHT22;38120;53.176;6.614;2023-09-19T07:17:56;14.40;99.90
52127;DHT22;38120;53.176;6.614;2023-09-19T07:20:23;14.50;99.90
52127;DHT22;38120;53.176;6.614;2023-09-19T07:22:49;14.50;99.90
52127;DHT22;38120;53.176;6.614;2023-09-19T07:25:16;14.50;99.90
52127;DHT22;38120;53.176;6.614;2023-09-19T07:27:42;14.60;99.90
52127;DHT22;38120;53.176;6.614;2023-09-19T07:30:08;14.60;99.90
52127;DHT22;38120;53.176;6.614;2023-09-19T07:32:35;14.60;99.90
52127;DHT22;38120;53.176;6.614;2023-09-19T07:35:02;14.60;99.90
52127;DHT22;38120;53.176;6.614;2023-09-19T07:37:29;14.60;99.90
52127;DHT22;38120;53.176;6.614;2023-09-19T07:39:56;14.60;99.90
52127;DHT22;38120;53.176;6.614;2023-09-19T07:42:22;14.60;99.90
52127;DHT22;38120;53.176;6.614;2023-09-19T07:44:48;14.60;99.90
52127;DHT22;38120;53.176;6.614;2023-09-19T07:47:16;14.60;99.90
52127;DHT22;38120;53.176;6.614;2023-09-19T07:49:42;14.70;99.90
52127;DHT22;38120;53.176;6.614;2023-09-19T07:52:09;14.70;99.90
52127;DHT22;38120;53.176;6.614;2023-09-19T07:54:36;14.80;99.90
52127;DHT22;38120;53.176;6.614;2023-09-19T07:57:02;14.90;99.90
52127;DHT22;38120;53.176;6.614;2023-09-19T07:59:28;14.90;99.90
52127;DHT22;38120;53.176;6.614;2023-09-19T08:01:53;15.00;99.90
52127;DHT22;38120;53.176;6.614;2023-09-19T08:04:20;14.90;99.90
52127;DHT22;38120;53.176;6.614;2023-09-19T08:06:45;14.90;99.90
52127;DHT22;38120;53.176;6.614;2023-09-19T08:09:11;14.90;99.90
52127;DHT22;38120;53.176;6.614;2023-09-19T08:11:39;15.00;99.90
52127;DHT22;38120;53.176;6.614;2023-09-19T08:14:05;15.00;99.90
52127;DHT22;38120;53.176;6.614;2023-09-19T08:16:33;15.00;99.90
52127;DHT22;38120;53.176;6.614;2023-09-19T08:18:59;15.10;99.90
52127;DHT22;38120;53.176;6.614;2023-09-19T08:21:25;15.10;99.90
52127;DHT22;38120;53.176;6.614;2023-09-19T08:23:51;15.20;99.90
52127;DHT22;38120;53.176;6.614;2023-09-19T08:26:18;15.30;99.90
52127;DHT22;38120;53.176;6.614;2023-09-19T08:28:45;15.30;99.90
52127;DHT22;38120;53.176;6.614;2023-09-19T08:31:11;15.40;99.90
52127;DHT22;38120;53.176;6.614;2023-09-19T08:33:37;15.30;99.90
52127;DHT22;38120;53.176;6.614;2023-09-19T08:36:03;15.30;99.90
52127;DHT22;38120;53.176;6.614;2023-09-19T08:38:34;15.30;99.90
52127;DHT22;38120;53.176;6.614;2023-09-19T08:41:04;15.40;99.90
52127;DHT22;38120;53.176;6.614;2023-09-19T08:43:30;15.40;99.90
52127;DHT22;38120;53.176;6.614;2023-09-19T08:46:11;15.50;99.90
52127;DHT22;38120;53.176;6.614;2023-09-19T08:49:08;15.50;99.90
52127;DHT22;38120;53.176;6.614;2023-09-19T08:54:17;15.40;99.90
52127;DHT22;38120;53.176;6.614;2023-09-19T08:56:46;15.50;99.90
52127;DHT22;38120;53.176;6.614;2023-09-19T08:59:13;15.60;99.90
52127;DHT22;38120;53.176;6.614;2023-09-19T09:01:39;15.60;99.90
52127;DHT22;38120;53.176;6.614;2023-09-19T09:04:09;15.60;99.90
52127;DHT22;38120;53.176;6.614;2023-09-19T09:06:36;15.60;99.90
52127;DHT22;38120;53.176;6.614;2023-09-19T09:09:05;15.70;99.90
52127;DHT22;38120;53.176;6.614;2023-09-19T09:11:33;15.70;99.90
52127;DHT22;38120;53.176;6.614;2023-09-19T09:13:59;15.80;99.90
52127;DHT22;38120;53.176;6.614;2023-09-19T09:16:24;15.70;99.90
52127;DHT22;38120;53.176;6.614;2023-09-19T09:18:51;15.70;99.90
52127;DHT22;38120;53.176;6.614;2023-09-19T09:21:20;15.80;99.90
52127;DHT22;38120;53.176;6.614;2023-09-19T09:23:48;15.80;99.90
52127;DHT22;38120;53.176;6.614;2023-09-19T09:26:15;15.80;99.90
52127;DHT22;38120;53.176;6.614;2023-09-19T09:28:45;15.90;99.90
52127;DHT22;38120;53.176;6.614;2023-09-19T09:31:23;16.00;99.90
52127;DHT22;38120;53.176;6.614;2023-09-19T09:33:54;16.10;99.90
52127;DHT22;38120;53.176;6.614;2023-09-19T09:36:37;16.20;99.90
52127;DHT22;38120;53.176;6.614;2023-09-19T09:39:04;16.30;99.90
52127;DHT22;38120;53.176;6.614;2023-09-19T09:41:42;16.50;99.90
52127;DHT22;38120;53.176;6.614;2023-09-19T09:44:16;16.80;99.90
52127;DHT22;38120;53.176;6.614;2023-09-19T09:46:46;16.90;99.90
52127;DHT22;38120;53.176;6.614;2023-09-19T09:49:25;16.80;99.90
52127;DHT22;38120;53.176;6.614;2023-09-19T09:52:06;16.80;99.90
52127;DHT22;38120;53.176;6.614;2023-09-19T09:55:04;16.80;99.90
52127;DHT22;38120;53.176;6.614;2023-09-19T09:57:31;16.90;99.90
52127;DHT22;38120;53.176;6.614;2023-09-19T09:59:58;16.90;99.90
52127;DHT22;38120;53.176;6.614;2023-09-19T10:02:35;16.90;99.90
52127;DHT22;38120;53.176;6.614;2023-09-19T10:07:53;17.00;99.90
52127;DHT22;38120;53.176;6.614;2023-09-19T10:10:36;17.20;99.90
52127;DHT22;38120;53.176;6.614;2023-09-19T10:13:12;17.30;99.90
52127;DHT22;38120;53.176;6.614;2023-09-19T10:15:43;17.40;99.90
52127;DHT22;38120;53.176;6.614;2023-09-19T10:18:22;17.40;99.90
52127;DHT22;38120;53.176;6.614;2023-09-19T10:20:49;17.50;99.90
52127;DHT22;38120;53.176;6.614;2023-09-19T10:23:20;17.60;99.90
52127;DHT22;38120;53.176;6.614;2023-09-19T10:25:52;17.50;99.90
52127;DHT22;38120;53.176;6.614;2023-09-19T10:28:19;17.40;99.90
52127;DHT22;38120;53.176;6.614;2023-09-19T10:30:49;17.50;99.90
52127;DHT22;38120;53.176;6.614;2023-09-19T10:33:23;17.50;99.90
52127;DHT22;38120;53.176;6.614;2023-09-19T10:35:53;17.60;99.90
52127;DHT22;38120;53.176;6.614;2023-09-19T10:38:27;17.60;99.90
52127;DHT22;38120;53.176;6.614;2023-09-19T10:40:55;17.80;99.90
52127;DHT22;38120;53.176;6.614;2023-09-19T10:43:29;17.90;99.90
52127;DHT22;38120;53.176;6.614;2023-09-19T10:46:00;18.00;99.90
52127;DHT22;38120;53.176;6.614;2023-09-19T10:48:26;18.10;99.90
52127;DHT22;38120;53.176;6.614;2023-09-19T10:56:19;18.30;99.90
52127;DHT22;38120;53.176;6.614;2023-09-19T10:58:47;18.20;99.90
52127;DHT22;38120;53.176;6.614;2023-09-19T11:01:14;18.40;99.90
52127;DHT22;38120;53.176;6.614;2023-09-19T11:03:41;18.40;99.90
52127;DHT22;38120;53.176;6.614;2023-09-19T11:06:11;18.60;99.90
52127;DHT22;38120;53.176;6.614;2023-09-19T11:09:00;18.30;99.90
52127;DHT22;38120;53.176;6.614;2023-09-19T11:11:47;18.00;99.90
52127;DHT22;38120;53.176;6.614;2023-09-19T11:30:44;17.80;99.90
52127;DHT22;38120;53.176;6.614;2023-09-19T11:36:04;17.60;99.90
52127;DHT22;38120;53.176;6.614;2023-09-19T11:49:18;17.70;99.90
52127;DHT22;38120;53.176;6.614;2023-09-19T11:51:46;17.70;99.90
52127;DHT22;38120;53.176;6.614;2023-09-19T11:54:16;17.80;99.90
52127;DHT22;38120;53.176;6.614;2023-09-19T11:56:45;17.80;99.90
52127;DHT22;38120;53.176;6.614;2023-09-19T11:59:11;17.80;99.90
52127;DHT22;38120;53.176;6.614;2023-09-19T12:01:40;17.80;99.90
52127;DHT22;38120;53.176;6.614;2023-09-19T12:04:11;17.60;99.90
52127;DHT22;38120;53.176;6.614;2023-09-19T12:06:37;17.60;99.90
52127;DHT22;38120;53.176;6.614;2023-09-19T12:09:12;17.50;99.90
52127;DHT22;38120;53.176;6.614;2023-09-19T12:11:42;17.50;99.90
52127;DHT22;38120;53.176;6.614;2023-09-19T12:14:11;17.50;99.90
52127;DHT22;38120;53.176;6.614;2023-09-19T12:16:37;17.50;99.90
52127;DHT22;38120;53.176;6.614;2023-09-19T12:19:20;17.60;99.90
52127;DHT22;38120;53.176;6.614;2023-09-19T12:22:03;17.60;99.90
52127;DHT22;38120;53.176;6.614;2023-09-19T12:24:34;17.70;99.90
52127;DHT22;38120;53.176;6.614;2023-09-19T12:27:07;17.60;99.90
52127;DHT22;38120;53.176;6.614;2023-09-19T12:29:46;17.60;99.90
52127;DHT22;38120;53.176;6.614;2023-09-19T12:32:12;17.60;99.90
52127;DHT22;38120;53.176;6.614;2023-09-19T12:34:39;17.60;99.90
52127;DHT22;38120;53.176;6.614;2023-09-19T12:37:16;17.50;99.90
52127;DHT22;38120;53.176;6.614;2023-09-19T12:39:50;17.50;99.90
52127;DHT22;38120;53.176;6.614;2023-09-19T12:42:23;17.40;99.90
52127;DHT22;38120;53.176;6.614;2023-09-19T12:44:52;17.50;99.90
52127;DHT22;38120;53.176;6.614;2023-09-19T12:47:27;17.70;99.90
52127;DHT22;38120;53.176;6.614;2023-09-19T12:50:16;17.70;99.90
52127;DHT22;38120;53.176;6.614;2023-09-19T12:55:30;17.70;99.90
52127;DHT22;38120;53.176;6.614;2023-09-19T12:58:13;17.80;99.90
52127;DHT22;38120;53.176;6.614;2023-09-19T13:00:42;17.80;99.90
52127;DHT22;38120;53.176;6.614;2023-09-19T13:06:01;17.80;99.90
52127;DHT22;38120;53.176;6.614;2023-09-19T13:08:46;17.70;99.90
52127;DHT22;38120;53.176;6.614;2023-09-19T13:11:19;17.60;99.90
52127;DHT22;38120;53.176;6.614;2023-09-19T13:14:13;17.60;99.90
52127;DHT22;38120;53.176;6.614;2023-09-19T13:16:33;17.60;99.90
52127;DHT22;38120;53.176;6.614;2023-09-19T13:18:59;17.70;99.90
52127;DHT22;38120;53.176;6.614;2023-09-19T13:21:34;17.70;99.90
52127;DHT22;38120;53.176;6.614;2023-09-19T13:24:23;17.70;99.90
52127;DHT22;38120;53.176;6.614;2023-09-19T13:26:58;17.70;99.90
52127;DHT22;38120;53.176;6.614;2023-09-19T13:29:25;17.60;99.90
52127;DHT22;38120;53.176;6.614;2023-09-19T13:31:52;17.50;99.90
52127;DHT22;38120;53.176;6.614;2023-09-19T13:34:19;17.50;99.90
52127;DHT22;38120;53.176;6.614;2023-09-19T13:36:45;17.50;99.90
52127;DHT22;38120;53.176;6.614;2023-09-19T13:39:14;17.50;99.90
52127;DHT22;38120;53.176;6.614;2023-09-19T13:41:41;17.60;99.90
52127;DHT22;38120;53.176;6.614;2023-09-19T13:44:09;17.60;99.90
52127;DHT22;38120;53.176;6.614;2023-09-19T13:46:38;17.50;99.90
52127;DHT22;38120;53.176;6.614;2023-09-19T13:49:04;17.50;99.90
52127;DHT22;38120;53.176;6.614;2023-09-19T13:51:31;17.40;99.90
52127;DHT22;38120;53.176;6.614;2023-09-19T13:53:57;17.40;99.90
52127;DHT22;38120;53.176;6.614;2023-09-19T13:56:22;17.50;99.90
52127;DHT22;38120;53.176;6.614;2023-09-19T13:58:49;17.50;99.90
52127;DHT22;38120;53.176;6.614;2023-09-19T14:01:15;17.60;99.90
52127;DHT22;38120;53.176;6.614;2023-09-19T14:03:41;17.80;99.90
52127;DHT22;38120;53.176;6.614;2023-09-19T14:06:12;17.90;99.90
52127;DHT22;38120;53.176;6.614;2023-09-19T14:08:37;17.90;99.90
52127;DHT22;38120;53.176;6.614;2023-09-19T14:11:10;17.90;99.90
52127;DHT22;38120;53.176;6.614;2023-09-19T14:13:36;17.80;99.90
52127;DHT22;38120;53.176;6.614;2023-09-19T14:16:06;17.80;99.90
52127;DHT22;38120;53.176;6.614;2023-09-19T14:18:32;17.70;99.90
52127;DHT22;38120;53.176;6.614;2023-09-19T14:20:58;17.80;99.90
52127;DHT22;38120;53.176;6.614;2023-09-19T14:23:23;17.90;99.90
52127;DHT22;38120;53.176;6.614;2023-09-19T14:25:50;17.90;99.90
52127;DHT22;38120;53.176;6.614;2023-09-19T14:28:17;17.90;99.90
52127;DHT22;38120;53.176;6.614;2023-09-19T14:30:44;17.90;99.90
52127;DHT22;38120;53.176;6.614;2023-09-19T14:33:11;17.80;99.90
52127;DHT22;38120;53.176;6.614;2023-09-19T14:35:37;17.80;99.90
52127;DHT22;38120;53.176;6.614;2023-09-19T14:38:06;17.80;99.90
52127;DHT22;38120;53.176;6.614;2023-09-19T14:40:31;17.90;99.90
52127;DHT22;38120;53.176;6.614;2023-09-19T14:42:57;17.80;99.90
52127;DHT22;38120;53.176;6.614;2023-09-19T14:45:23;17.90;99.90
52127;DHT22;38120;53.176;6.614;2023-09-19T14:47:51;17.90;99.90
52127;DHT22;38120;53.176;6.614;2023-09-19T14:50:20;17.90;99.90
52127;DHT22;38120;53.176;6.614;2023-09-19T14:52:47;17.90;99.90
52127;DHT22;38120;53.176;6.614;2023-09-19T14:55:15;18.00;99.90
52127;DHT22;38120;53.176;6.614;2023-09-19T14:57:41;18.00;99.90
52127;DHT22;38120;53.176;6.614;2023-09-19T15:00:10;18.00;99.90
52127;DHT22;38120;53.176;6.614;2023-09-19T15:02:38;17.90;99.90
52127;DHT22;38120;53.176;6.614;2023-09-19T15:05:06;17.80;99.90
52127;DHT22;38120;53.176;6.614;2023-09-19T15:07:35;17.90;99.90
52127;DHT22;38120;53.176;6.614;2023-09-19T15:10:03;17.80;99.90
52127;DHT22;38120;53.176;6.614;2023-09-19T15:12:32;18.60;99.90
52127;DHT22;38120;53.176;6.614;2023-09-19T15:14:58;17.70;99.90
52127;DHT22;38120;53.176;6.614;2023-09-19T15:17:24;17.00;99.90
52127;DHT22;38120;53.176;6.614;2023-09-19T15:19:51;17.60;99.90
52127;DHT22;38120;53.176;6.614;2023-09-19T15:22:17;17.70;99.90
52127;DHT22;38120;53.176;6.614;2023-09-19T15:24:42;17.70;99.90
52127;DHT22;38120;53.176;6.614;2023-09-19T15:27:10;17.70;99.90
52127;DHT22;38120;53.176;6.614;2023-09-19T15:29:35;17.70;99.90
52127;DHT22;38120;53.176;6.614;2023-09-19T15:32:01;17.60;99.90
52127;DHT22;38120;53.176;6.614;2023-09-19T15:34:28;17.50;99.90
52127;DHT22;38120;53.176;6.614;2023-09-19T15:36:55;17.40;99.90
52127;DHT22;38120;53.176;6.614;2023-09-19T15:39:20;17.30;99.90
52127;DHT22;38120;53.176;6.614;2023-09-19T15:41:48;17.20;99.90
52127;DHT22;38120;53.176;6.614;2023-09-19T15:44:18;17.10;99.90
52127;DHT22;38120;53.176;6.614;2023-09-19T15:46:44;17.10;99.90
52127;DHT22;38120;53.176;6.614;2023-09-19T15:49:11;17.10;99.90
52127;DHT22;38120;53.176;6.614;2023-09-19T15:51:37;17.10;99.90
52127;DHT22;38120;53.176;6.614;2023-09-19T15:54:07;17.10;99.90
52127;DHT22;38120;53.176;6.614;2023-09-19T15:56:33;17.10;99.90
52127;DHT22;38120;53.176;6.614;2023-09-19T15:59:00;16.50;99.90
52127;DHT22;38120;53.176;6.614;2023-09-19T16:01:26;17.20;99.90
52127;DHT22;38120;53.176;6.614;2023-09-19T16:03:53;17.10;99.90
52127;DHT22;38120;53.176;6.614;2023-09-19T16:06:23;17.20;99.90
52127;DHT22;38120;53.176;6.614;2023-09-19T16:08:50;17.10;99.90
52127;DHT22;38120;53.176;6.614;2023-09-19T16:11:17;17.10;99.90
52127;DHT22;38120;53.176;6.614;2023-09-19T16:13:47;17.10;99.90
52127;DHT22;38120;53.176;6.614;2023-09-19T16:16:14;17.10;99.90
52127;DHT22;38120;53.176;6.614;2023-09-19T16:18:49;17.10;99.90
52127;DHT22;38120;53.176;6.614;2023-09-19T16:21:15;17.10;99.90
52127;DHT22;38120;53.176;6.614;2023-09-19T16:23:46;17.00;99.90
52127;DHT22;38120;53.176;6.614;2023-09-19T16:26:12;17.10;99.90
52127;DHT22;38120;53.176;6.614;2023-09-19T16:28:39;17.10;99.90
52127;DHT22;38120;53.176;6.614;2023-09-19T16:31:06;17.10;99.90
52127;DHT22;38120;53.176;6.614;2023-09-19T16:33:40;17.00;99.90
52127;DHT22;38120;53.176;6.614;2023-09-19T16:36:09;17.00;99.90
52127;DHT22;38120;53.176;6.614;2023-09-19T16:38:36;16.90;99.90
52127;DHT22;38120;53.176;6.614;2023-09-19T16:41:05;16.80;99.90
52127;DHT22;38120;53.176;6.614;2023-09-19T16:43:33;16.80;99.90